Time;durP1;ratioP1;P1;durP2;ratioP2;P2;SDS_P1;SDS_P2;PMS_P1;PMS_P2;Temp;Humidity;BMP_temperature;BMP_pressure;BME280_temperature;BME280_humidity;BME280_pressure;Samples;Min_cycle;Max_cycle;Signal;HPM_P1;HPM_P2
2023/06/26 00:01:31;;;;;;;12.93;9.68;;;21.10;99.90;;;;;;5061723;28;20043;-81
2023/06/26 00:03:57;;;;;;;9.77;8.80;;;21.10;99.90;;;;;;5047199;28;20691;-82
2023/06/26 00:06:24;;;;;;;9.98;9.07;;;21.10;99.90;;;;;;5060373;28;20040;-81
2023/06/26 00:08:50;;;;;;;10.30;9.27;;;21.10;99.90;;;;;;5055678;28;20041;-81
2023/06/26 00:11:16;;;;;;;9.77;8.98;;;21.10;99.90;;;;;;5052382;28;20086;-81
2023/06/26 00:13:42;;;;;;;9.98;9.02;;;21.00;99.90;;;;;;5064899;28;20037;-81
2023/06/26 00:16:08;;;;;;;10.52;9.63;;;21.10;99.90;;;;;;5058362;28;20036;-81
2023/06/26 00:18:34;;;;;;;10.45;9.45;;;21.00;99.90;;;;;;5061568;28;20873;-82
2023/06/26 00:21:00;;;;;;;10.63;9.63;;;21.10;99.90;;;;;;5065082;28;20052;-82
2023/06/26 00:23:27;;;;;;;10.07;9.02;;;21.00;99.90;;;;;;5065854;28;20530;-81
2023/06/26 00:25:53;;;;;;;10.60;9.60;;;21.00;99.90;;;;;;5066164;28;20049;-81
2023/06/26 00:28:18;;;;;;;10.38;9.45;;;20.90;99.90;;;;;;5059945;28;20048;-81
2023/06/26 00:30:44;;;;;;;10.65;9.73;;;20.90;99.90;;;;;;5062655;28;20051;-82
2023/06/26 00:33:09;;;;;;;10.50;9.40;;;20.90;99.90;;;;;;5046772;28;20045;-82
2023/06/26 00:35:35;;;;;;;11.55;9.90;;;20.80;99.90;;;;;;5046970;28;20128;-81
2023/06/26 00:38:01;;;;;;;10.35;9.40;;;20.90;99.90;;;;;;5065208;28;20103;-82
2023/06/26 00:40:27;;;;;;;10.73;9.77;;;21.10;99.90;;;;;;5062928;28;20056;-81
2023/06/26 00:42:53;;;;;;;11.07;9.75;;;21.00;99.90;;;;;;5063830;28;20045;-81
2023/06/26 00:45:19;;;;;;;10.88;9.80;;;20.80;99.90;;;;;;5040195;28;20119;-82
2023/06/26 00:47:45;;;;;;;11.05;9.95;;;20.60;99.90;;;;;;5057941;28;20127;-81
2023/06/26 00:50:11;;;;;;;11.02;10.02;;;20.70;99.90;;;;;;5060498;28;20145;-81
2023/06/26 00:52:37;;;;;;;11.50;10.50;;;20.70;99.90;;;;;;5062278;28;20090;-81
2023/06/26 00:55:03;;;;;;;11.55;10.45;;;20.70;99.90;;;;;;5065996;28;20538;-81
2023/06/26 00:57:30;;;;;;;12.23;11.10;;;20.60;99.90;;;;;;5068643;28;20040;-82
2023/06/26 00:59:56;;;;;;;12.07;11.02;;;20.80;99.90;;;;;;5068057;28;20041;-82
2023/06/26 01:02:22;;;;;;;12.50;11.23;;;20.60;99.90;;;;;;5064122;28;20159;-82
2023/06/26 01:04:52;;;;;;;12.02;10.93;;;20.60;99.90;;;;;;5066334;28;20119;-81
2023/06/26 01:07:19;;;;;;;11.63;10.63;;;20.60;99.90;;;;;;5065890;28;20037;-81
2023/06/26 01:09:47;;;;;;;11.95;10.85;;;20.60;99.90;;;;;;5051037;28;20051;-81
2023/06/26 01:12:13;;;;;;;12.10;11.00;;;20.60;99.90;;;;;;5067293;28;20464;-81
2023/06/26 01:14:39;;;;;;;13.13;11.90;;;20.70;99.90;;;;;;5062862;28;20052;-81
2023/06/26 01:17:05;;;;;;;11.98;10.88;;;20.50;99.90;;;;;;5062094;28;20037;-81
2023/06/26 01:19:33;;;;;;;12.15;10.95;;;20.50;99.90;;;;;;5068216;28;20057;-82
2023/06/26 01:22:31;;;;;;;13.05;11.75;;;20.70;99.90;;;;;;5040792;28;20041;-82
2023/06/26 01:25:18;;;;;;;12.70;11.50;;;20.50;99.90;;;;;;5080040;28;20051;-81
2023/06/26 01:27:50;;;;;;;11.50;10.45;;;20.50;99.90;;;;;;5046136;28;20541;-82
2023/06/26 01:30:17;;;;;;;12.60;11.40;;;20.20;99.90;;;;;;5061740;28;20047;-82
2023/06/26 01:32:44;;;;;;;12.27;11.18;;;20.40;99.90;;;;;;5066397;28;20071;-81
2023/06/26 01:35:11;;;;;;;12.02;10.68;;;20.30;99.90;;;;;;5060048;28;20044;-81
2023/06/26 01:37:36;;;;;;;12.10;11.02;;;20.30;99.90;;;;;;5060490;28;20082;-81
2023/06/26 01:40:06;;;;;;;12.45;11.27;;;20.20;99.90;;;;;;5066294;28;20058;-81
2023/06/26 01:42:33;;;;;;;12.65;11.52;;;20.30;99.90;;;;;;5051086;28;20197;-82
2023/06/26 01:45:05;;;;;;;12.82;11.60;;;20.60;99.90;;;;;;5067613;28;20044;-82
2023/06/26 01:47:34;;;;;;;12.13;11.02;;;20.10;99.90;;;;;;5057186;28;20176;-81
2023/06/26 01:50:10;;;;;;;12.32;11.32;;;20.30;99.90;;;;;;5065341;28;20604;-81
2023/06/26 01:52:51;;;;;;;12.90;11.70;;;20.20;99.90;;;;;;5066984;28;20174;-82
2023/06/26 01:55:36;;;;;;;12.95;11.75;;;20.20;99.90;;;;;;5067557;28;20071;-81
2023/06/26 01:58:03;;;;;;;11.85;10.77;;;20.10;99.90;;;;;;5067403;28;20539;-81
2023/06/26 02:00:29;;;;;;;12.40;11.18;;;20.20;99.90;;;;;;5069440;28;20036;-81
2023/06/26 02:02:54;;;;;;;12.10;11.02;;;20.20;99.90;;;;;;5048980;28;20123;-82
2023/06/26 02:05:20;;;;;;;12.65;11.45;;;20.10;99.90;;;;;;5064175;28;20472;-82
2023/06/26 02:07:46;;;;;;;12.52;11.40;;;20.00;99.90;;;;;;5065984;28;20040;-82
2023/06/26 02:10:12;;;;;;;13.32;12.13;;;20.10;99.90;;;;;;5064140;28;20103;-81
2023/06/26 02:12:38;;;;;;;12.48;11.35;;;20.10;99.90;;;;;;5059274;28;20103;-81
2023/06/26 02:15:04;;;;;;;12.02;10.95;;;20.00;99.90;;;;;;5055727;28;20094;-81
2023/06/26 02:17:30;;;;;;;12.20;11.13;;;20.00;99.90;;;;;;5065436;28;20040;-82
2023/06/26 02:19:56;;;;;;;13.25;12.05;;;19.80;99.90;;;;;;5049757;28;20041;-81
2023/06/26 02:22:21;;;;;;;12.00;10.90;;;20.00;99.90;;;;;;5069249;28;20783;-81
2023/06/26 02:24:47;;;;;;;11.57;10.57;;;20.00;99.90;;;;;;5049474;28;20148;-81
2023/06/26 02:27:13;;;;;;;13.18;11.98;;;19.90;99.90;;;;;;5067716;28;20090;-81
2023/06/26 02:29:40;;;;;;;11.73;10.63;;;20.20;99.90;;;;;;5067160;28;20381;-82
2023/06/26 02:32:06;;;;;;;12.65;11.45;;;19.90;99.90;;;;;;5063208;28;20044;-82
2023/06/26 02:34:33;;;;;;;12.48;11.27;;;19.80;99.90;;;;;;5045537;28;20037;-81
2023/06/26 02:37:00;;;;;;;12.48;11.48;;;19.80;99.90;;;;;;5063898;28;20052;-81
2023/06/26 02:39:26;;;;;;;12.65;11.45;;;20.10;99.90;;;;;;5065120;28;20055;-82
2023/06/26 02:41:51;;;;;;;12.88;11.68;;;19.80;99.90;;;;;;5066884;28;20496;-82
2023/06/26 02:44:17;;;;;;;13.55;12.15;;;19.90;99.90;;;;;;5048337;28;20047;-81
2023/06/26 02:46:43;;;;;;;12.95;11.75;;;19.70;99.90;;;;;;5066969;28;20044;-81
2023/06/26 02:49:08;;;;;;;13.05;11.85;;;19.70;99.90;;;;;;5064378;28;20106;-81
2023/06/26 02:51:34;;;;;;;13.77;12.43;;;19.80;99.90;;;;;;5062928;28;20049;-82
2023/06/26 02:54:00;;;;;;;13.50;12.23;;;19.90;99.90;;;;;;5050034;28;20045;-81
2023/06/26 02:56:29;;;;;;;14.35;12.80;;;20.00;99.90;;;;;;5065165;28;20511;-81
2023/06/26 02:58:58;;;;;;;14.00;12.63;;;19.70;99.90;;;;;;5065712;28;20491;-82
2023/06/26 03:01:24;;;;;;;13.02;11.88;;;19.80;99.90;;;;;;5066636;28;20040;-82
2023/06/26 03:03:50;;;;;;;13.63;12.40;;;19.70;99.90;;;;;;5065401;28;20051;-83
2023/06/26 03:06:16;;;;;;;14.15;12.63;;;19.70;99.90;;;;;;5047226;28;20045;-81
2023/06/26 03:08:41;;;;;;;14.27;12.77;;;20.10;99.90;;;;;;5049135;28;20083;-82
2023/06/26 03:11:09;;;;;;;13.13;11.82;;;19.70;99.90;;;;;;5064468;28;20072;-82
2023/06/26 03:13:35;;;;;;;13.65;12.35;;;19.70;99.90;;;;;;5064778;28;20059;-81
2023/06/26 03:16:01;;;;;;;14.52;13.25;;;19.70;99.90;;;;;;5065843;28;20089;-82
2023/06/26 03:18:27;;;;;;;14.82;13.52;;;19.70;99.90;;;;;;5062826;28;20136;-82
2023/06/26 03:20:54;;;;;;;15.15;13.65;;;19.90;99.90;;;;;;5058424;28;20132;-81
2023/06/26 03:23:20;;;;;;;15.02;13.63;;;19.70;99.90;;;;;;5036764;28;20095;-82
2023/06/26 03:25:46;;;;;;;14.75;13.27;;;19.70;99.90;;;;;;5055216;28;20067;-82
2023/06/26 03:28:12;;;;;;;14.50;13.10;;;19.70;99.90;;;;;;5067910;28;20040;-81
2023/06/26 03:30:37;;;;;;;15.57;14.18;;;19.70;99.90;;;;;;5064713;28;20052;-82
2023/06/26 03:33:03;;;;;;;14.98;13.68;;;19.70;99.90;;;;;;5065241;28;20060;-82
2023/06/26 03:35:29;;;;;;;13.75;12.50;;;19.80;99.90;;;;;;5060727;28;20044;-82
2023/06/26 03:37:54;;;;;;;14.77;13.25;;;19.80;99.90;;;;;;5065422;28;20876;-81
2023/06/26 03:40:20;;;;;;;15.25;13.88;;;19.80;99.90;;;;;;5064830;28;20052;-82
2023/06/26 03:42:45;;;;;;;13.68;12.35;;;20.00;99.90;;;;;;5065613;28;20043;-82
2023/06/26 03:45:11;;;;;;;12.95;11.75;;;19.90;99.90;;;;;;5064089;28;20132;-82
2023/06/26 03:47:37;;;;;;;12.75;11.65;;;20.00;99.90;;;;;;5065126;28;20047;-81
2023/06/26 03:50:03;;;;;;;12.90;11.60;;;20.00;99.90;;;;;;5060284;28;20083;-82
2023/06/26 03:52:30;;;;;;;12.95;11.70;;;20.10;99.90;;;;;;5060589;28;20040;-82
2023/06/26 03:54:59;;;;;;;12.20;11.02;;;20.30;99.90;;;;;;5059394;28;20127;-82
2023/06/26 03:57:25;;;;;;;11.55;10.45;;;20.30;99.90;;;;;;5046219;28;20045;-81
2023/06/26 03:59:51;;;;;;;10.98;9.88;;;20.40;99.90;;;;;;5052765;28;20044;-82
2023/06/26 04:02:17;;;;;;;11.38;10.05;;;20.50;99.90;;;;;;5064731;28;20465;-82
2023/06/26 04:04:42;;;;;;;10.38;9.38;;;20.80;99.90;;;;;;5062264;28;20050;-82
2023/06/26 04:07:08;;;;;;;10.48;9.40;;;20.60;99.90;;;;;;5062298;28;20101;-82
2023/06/26 04:09:33;;;;;;;9.55;8.65;;;20.70;99.90;;;;;;5064628;28;20040;-83
2023/06/26 04:11:59;;;;;;;9.50;8.32;;;21.20;99.90;;;;;;5064965;28;20629;-83
2023/06/26 04:14:25;;;;;;;10.45;8.68;;;20.90;99.90;;;;;;5064714;28;20060;-82
2023/06/26 04:16:50;;;;;;;9.93;8.95;;;21.00;99.90;;;;;;5065124;28;20036;-82
2023/06/26 04:19:16;;;;;;;9.25;8.30;;;21.00;99.90;;;;;;5062806;28;20551;-82
2023/06/26 04:21:42;;;;;;;9.10;8.20;;;21.10;99.90;;;;;;5057981;28;21537;-82
2023/06/26 04:24:08;;;;;;;9.25;8.07;;;21.00;99.90;;;;;;5060284;28;20051;-83
2023/06/26 04:26:34;;;;;;;9.75;7.85;;;21.30;99.90;;;;;;5065947;28;20143;-83
2023/06/26 04:29:00;;;;;;;9.30;8.23;;;21.20;99.90;;;;;;5065783;28;20047;-83
2023/06/26 04:31:26;;;;;;;10.15;7.97;;;21.20;99.90;;;;;;5067027;28;20066;-83
2023/06/26 04:33:54;;;;;;;8.85;7.80;;;21.10;99.90;;;;;;5050000;28;20131;-83
2023/06/26 04:36:20;;;;;;;8.68;7.75;;;21.30;99.90;;;;;;5063308;28;20362;-82
2023/06/26 04:38:47;;;;;;;11.32;7.70;;;21.20;99.90;;;;;;5067896;28;20392;-82
2023/06/26 04:41:13;;;;;;;9.52;7.70;;;21.20;99.90;;;;;;5070294;28;20074;-83
2023/06/26 04:43:39;;;;;;;11.45;7.97;;;21.20;99.90;;;;;;5067634;28;20396;-83
2023/06/26 04:46:05;;;;;;;8.20;7.40;;;21.20;99.90;;;;;;5067148;28;20083;-84
2023/06/26 04:48:32;;;;;;;11.02;7.10;;;21.30;99.90;;;;;;5065858;28;20103;-83
2023/06/26 04:50:58;;;;;;;10.07;7.72;;;21.50;99.90;;;;;;5062170;28;20045;-82
2023/06/26 04:53:24;;;;;;;12.38;8.20;;;21.50;99.90;;;;;;5078201;28;20047;-84
2023/06/26 04:55:51;;;;;;;10.73;7.38;;;21.60;99.90;;;;;;5066988;28;20052;-84
2023/06/26 04:58:17;;;;;;;9.15;6.22;;;21.90;99.90;;;;;;5068372;28;20098;-84
2023/06/26 05:00:43;;;;;;;11.18;7.68;;;21.70;99.90;;;;;;5063366;28;20803;-83
2023/06/26 05:03:11;;;;;;;10.80;7.18;;;21.70;99.90;;;;;;5068062;28;20041;-83
2023/06/26 05:05:37;;;;;;;12.00;7.63;;;21.90;99.90;;;;;;5046236;28;20060;-82
2023/06/26 05:08:23;;;;;;;12.23;7.07;;;21.70;99.90;;;;;;5044692;28;20040;-83
2023/06/26 05:10:49;;;;;;;11.00;6.95;;;21.60;99.90;;;;;;5065351;28;20184;-82
2023/06/26 05:13:32;;;;;;;11.00;7.10;;;21.60;99.90;;;;;;5062626;28;20033;-84
2023/06/26 05:15:58;;;;;;;10.70;6.75;;;21.50;99.90;;;;;;5069008;28;20084;-83
2023/06/26 05:18:24;;;;;;;10.40;7.15;;;21.50;99.90;;;;;;5053274;28;20090;-84
2023/06/26 05:20:50;;;;;;;11.70;6.93;;;21.40;99.90;;;;;;5068493;28;20041;-83
2023/06/26 05:23:16;;;;;;;10.82;6.97;;;21.40;99.90;;;;;;5067701;28;20037;-83
2023/06/26 05:25:42;;;;;;;12.02;7.40;;;21.40;99.90;;;;;;5069996;28;20404;-83
2023/06/26 05:28:10;;;;;;;10.25;6.60;;;21.70;99.90;;;;;;5053290;28;20052;-84
2023/06/26 05:30:36;;;;;;;12.25;7.93;;;21.50;99.90;;;;;;5068983;28;20508;-83
2023/06/26 05:33:02;;;;;;;11.45;6.80;;;21.60;99.90;;;;;;5075825;28;20048;-83
2023/06/26 05:35:32;;;;;;;10.63;6.97;;;21.80;99.90;;;;;;5068597;28;20103;-84
2023/06/26 05:37:59;;;;;;;12.00;6.50;;;22.00;99.90;;;;;;5058832;28;20036;-83
2023/06/26 05:40:25;;;;;;;14.60;7.05;;;22.30;99.90;;;;;;5068489;28;20522;-83
2023/06/26 05:42:54;;;;;;;9.38;6.90;;;22.40;99.90;;;;;;5051362;28;20044;-83
2023/06/26 05:45:20;;;;;;;10.27;6.20;;;22.40;99.90;;;;;;5067051;28;20163;-83
2023/06/26 05:47:46;;;;;;;9.45;6.43;;;22.40;99.90;;;;;;5068609;28;20158;-83
2023/06/26 05:50:12;;;;;;;9.10;6.18;;;22.10;99.90;;;;;;5069494;28;20142;-85
2023/06/26 05:52:38;;;;;;;10.43;5.72;;;21.90;99.90;;;;;;5069277;28;20097;-83
2023/06/26 05:55:06;;;;;;;9.73;6.55;;;21.70;99.90;;;;;;5067866;28;20075;-83
2023/06/26 05:57:32;;;;;;;11.07;6.25;;;21.70;99.90;;;;;;5067316;28;20110;-85
2023/06/26 05:59:57;;;;;;;11.50;6.28;;;21.80;99.90;;;;;;5051236;28;20115;-87
2023/06/26 06:02:23;;;;;;;9.85;6.07;;;21.70;99.90;;;;;;5070016;28;20032;-86
2023/06/26 06:04:49;;;;;;;7.88;5.65;;;21.70;99.90;;;;;;5068876;28;20040;-84
2023/06/26 06:07:15;;;;;;;6.65;4.90;;;21.60;99.90;;;;;;5051462;28;20144;-85
2023/06/26 06:09:40;;;;;;;7.73;5.57;;;21.70;99.90;;;;;;5068545;28;20090;-86
2023/06/26 06:12:07;;;;;;;7.72;5.57;;;21.60;99.90;;;;;;5067515;28;20033;-87
2023/06/26 06:14:36;;;;;;;10.18;5.28;;;21.60;99.90;;;;;;5067745;28;20537;-87
2023/06/26 06:17:02;;;;;;;8.60;4.45;;;21.80;99.90;;;;;;5084850;28;20059;-86
2023/06/26 06:19:27;;;;;;;10.63;4.15;;;22.40;99.90;;;;;;5067629;28;20044;-87
2023/06/26 06:21:53;;;;;;;6.10;3.47;;;23.20;99.90;;;;;;5068204;28;20052;-86
2023/06/26 06:24:20;;;;;;;5.13;2.90;;;23.40;99.90;;;;;;5069261;28;20119;-87
2023/06/26 06:26:46;;;;;;;5.85;2.97;;;23.50;99.90;;;;;;5066376;28;20085;-83
2023/06/26 06:29:11;;;;;;;6.55;2.72;;;23.90;99.90;;;;;;5069139;28;20036;-85
2023/06/26 06:31:37;;;;;;;5.97;3.10;;;24.60;99.90;;;;;;5049624;28;20055;-84
2023/06/26 06:34:02;;;;;;;8.10;3.08;;;24.50;99.90;;;;;;5067957;28;20516;-84
2023/06/26 06:36:28;;;;;;;5.40;2.60;;;24.30;99.90;;;;;;5067998;28;20124;-84
2023/06/26 06:38:54;;;;;;;4.70;2.17;;;24.50;99.90;;;;;;5067463;28;20089;-84
2023/06/26 06:41:22;;;;;;;4.38;2.40;;;24.80;99.90;;;;;;5068360;28;20047;-84
2023/06/26 06:43:48;;;;;;;4.13;2.00;;;25.00;99.90;;;;;;5067283;28;20057;-83
2023/06/26 06:46:14;;;;;;;3.22;1.88;;;24.50;99.90;;;;;;5067215;28;20056;-83
2023/06/26 06:48:39;;;;;;;3.80;1.80;;;24.10;99.90;;;;;;5065435;28;20041;-83
2023/06/26 06:51:05;;;;;;;4.35;1.80;;;23.70;99.90;;;;;;5064785;28;20613;-83
2023/06/26 06:53:31;;;;;;;6.30;1.92;;;23.30;99.70;;;;;;5065392;28;20057;-82
2023/06/26 06:55:57;;;;;;;3.50;1.77;;;23.10;99.90;;;;;;5048665;28;20040;-82
2023/06/26 06:58:22;;;;;;;6.70;1.90;;;23.10;99.90;;;;;;5082133;28;20044;-83
2023/06/26 07:00:49;;;;;;;4.28;2.13;;;23.10;99.90;;;;;;5048916;28;20040;-83
2023/06/26 07:03:14;;;;;;;5.47;1.85;;;23.00;99.90;;;;;;5066382;28;20044;-83
2023/06/26 07:05:44;;;;;;;4.45;1.70;;;22.60;99.70;;;;;;5066913;28;20051;-83
2023/06/26 07:08:09;;;;;;;4.55;1.85;;;22.70;99.00;;;;;;5050065;28;20087;-83
2023/06/26 07:10:35;;;;;;;4.47;1.80;;;22.70;99.80;;;;;;5067136;28;20084;-83
2023/06/26 07:13:00;;;;;;;2.53;1.80;;;22.60;99.80;;;;;;5050168;28;20427;-83
2023/06/26 07:15:26;;;;;;;3.83;1.42;;;22.70;99.90;;;;;;5066476;28;20185;-84
2023/06/26 07:17:52;;;;;;;4.65;1.73;;;23.00;99.80;;;;;;5066815;28;20147;-83
2023/06/26 07:20:18;;;;;;;3.05;1.80;;;22.90;99.60;;;;;;5066508;28;20099;-84
2023/06/26 07:22:44;;;;;;;7.53;2.10;;;22.80;99.40;;;;;;5066482;28;20183;-83
2023/06/26 07:25:10;;;;;;;4.55;1.80;;;22.80;99.60;;;;;;5046602;28;20052;-83
2023/06/26 07:27:40;;;;;;;4.05;1.75;;;22.70;99.60;;;;;;5063840;28;20094;-83
2023/06/26 07:30:10;;;;;;;3.33;1.83;;;22.90;99.70;;;;;;5066598;28;20052;-83
2023/06/26 07:32:40;;;;;;;5.57;2.28;;;23.00;99.80;;;;;;5068623;28;20040;-83
2023/06/26 07:35:06;;;;;;;4.18;1.80;;;23.40;99.60;;;;;;5065653;28;20052;-83
2023/06/26 07:37:32;;;;;;;3.30;1.90;;;23.30;99.50;;;;;;5046272;28;20045;-83
2023/06/26 07:39:57;;;;;;;6.72;2.03;;;23.40;99.20;;;;;;5046317;28;20049;-85
2023/06/26 07:42:23;;;;;;;2.30;1.45;;;23.40;98.80;;;;;;5046080;28;20405;-84
2023/06/26 07:44:49;;;;;;;2.25;1.73;;;23.50;98.50;;;;;;5045924;28;20048;-84
2023/06/26 07:47:14;;;;;;;2.38;1.60;;;23.60;98.30;;;;;;5030735;28;20049;-86
2023/06/26 07:49:40;;;;;;;4.07;1.83;;;23.60;97.70;;;;;;5047839;28;20061;-86
2023/06/26 07:52:06;;;;;;;3.58;1.52;;;23.90;98.00;;;;;;5055875;28;20084;-84
2023/06/26 07:54:32;;;;;;;3.55;1.63;;;23.70;97.30;;;;;;5066787;28;20062;-84
2023/06/26 07:56:59;;;;;;;2.90;1.42;;;23.90;96.80;;;;;;5068490;28;20044;-84
2023/06/26 07:59:27;;;;;;;3.45;1.42;;;23.60;96.30;;;;;;5065043;28;20118;-84
2023/06/26 08:01:54;;;;;;;3.08;1.45;;;23.90;95.80;;;;;;5065920;28;20049;-84
2023/06/26 08:04:22;;;;;;;2.35;1.25;;;23.80;94.80;;;;;;5066201;28;20087;-84
2023/06/26 08:06:53;;;;;;;2.20;1.20;;;23.80;94.60;;;;;;5064065;28;20048;-85
2023/06/26 08:09:20;;;;;;;3.70;1.40;;;23.90;93.70;;;;;;5066512;28;20059;-85
2023/06/26 08:11:46;;;;;;;3.65;1.50;;;23.90;94.00;;;;;;5046534;28;20072;-83
2023/06/26 08:14:12;;;;;;;3.83;1.40;;;23.90;93.90;;;;;;5066722;28;20053;-84
2023/06/26 08:16:39;;;;;;;8.52;1.67;;;24.10;93.90;;;;;;5064741;28;20616;-84
2023/06/26 08:19:04;;;;;;;2.20;1.40;;;24.10;93.40;;;;;;5064990;28;20518;-83
2023/06/26 08:21:30;;;;;;;4.07;1.40;;;24.20;93.00;;;;;;5067696;28;20049;-86
2023/06/26 08:23:56;;;;;;;3.63;1.20;;;24.20;92.60;;;;;;5061582;28;20064;-84
2023/06/26 08:26:21;;;;;;;4.05;1.90;;;24.20;92.30;;;;;;5066661;28;20052;-83
2023/06/26 08:28:47;;;;;;;2.15;1.27;;;24.20;92.20;;;;;;5063588;28;20630;-83
2023/06/26 08:31:12;;;;;;;3.50;1.63;;;23.70;92.10;;;;;;5067023;28;20593;-83
2023/06/26 08:33:38;;;;;;;4.13;1.80;;;23.60;92.60;;;;;;5068543;28;20041;-84
2023/06/26 08:36:04;;;;;;;2.22;1.40;;;23.70;92.90;;;;;;5067379;28;20036;-83
2023/06/26 08:38:29;;;;;;;2.63;1.55;;;24.00;92.80;;;;;;5067452;28;20033;-84
2023/06/26 08:40:55;;;;;;;2.22;1.27;;;24.20;92.40;;;;;;5065814;28;20032;-84
2023/06/26 08:43:21;;;;;;;2.67;1.55;;;24.30;92.00;;;;;;5065863;28;20056;-84
2023/06/26 08:45:51;;;;;;;3.70;1.73;;;23.90;92.00;;;;;;5067341;28;20139;-84
2023/06/26 08:48:17;;;;;;;3.40;1.55;;;23.50;92.40;;;;;;5068402;28;20794;-87
2023/06/26 08:50:44;;;;;;;4.38;1.33;;;23.50;92.90;;;;;;5070151;28;20076;-86
2023/06/26 08:53:20;;;;;;;4.32;1.50;;;23.30;93.60;;;;;;5065084;28;20052;-87
2023/06/26 08:55:51;;;;;;;2.35;1.70;;;23.10;93.70;;;;;;5066895;28;20044;-86
2023/06/26 08:58:20;;;;;;;4.68;1.67;;;23.20;94.10;;;;;;5067375;28;20060;-86
2023/06/26 09:00:46;;;;;;;2.95;1.80;;;23.30;94.20;;;;;;5068409;28;20048;-87
2023/06/26 09:03:13;;;;;;;3.90;2.00;;;23.30;94.10;;;;;;5070486;28;20729;-86
2023/06/26 09:05:39;;;;;;;4.13;1.60;;;23.40;94.20;;;;;;5051185;28;20048;-84
2023/06/26 09:08:06;;;;;;;2.60;1.60;;;23.40;94.20;;;;;;5071046;28;20082;-87
2023/06/26 09:10:32;;;;;;;2.78;1.55;;;23.50;94.20;;;;;;5072505;28;20052;-86
2023/06/26 09:12:58;;;;;;;5.72;1.90;;;23.70;93.70;;;;;;5074226;28;20041;-86
2023/06/26 09:15:24;;;;;;;2.65;1.50;;;23.70;93.40;;;;;;5067048;28;20052;-80
2023/06/26 09:17:50;;;;;;;6.85;1.73;;;23.40;93.10;;;;;;5066257;28;20044;-81
2023/06/26 09:20:15;;;;;;;2.45;1.73;;;23.50;93.20;;;;;;5068080;28;20044;-83
2023/06/26 09:22:43;;;;;;;5.72;1.85;;;23.30;93.40;;;;;;5069582;28;20051;-83
2023/06/26 09:25:09;;;;;;;4.43;2.00;;;23.30;93.90;;;;;;5070009;28;20044;-83
2023/06/26 09:27:36;;;;;;;6.38;1.77;;;23.60;93.70;;;;;;5064578;28;20044;-83
2023/06/26 09:30:03;;;;;;;3.17;1.75;;;23.70;93.90;;;;;;5061225;28;20037;-82
2023/06/26 09:32:29;;;;;;;3.22;1.92;;;23.90;93.60;;;;;;5068848;28;20143;-82
2023/06/26 09:35:00;;;;;;;2.63;1.88;;;24.00;92.70;;;;;;5069790;28;20041;-83
2023/06/26 09:37:26;;;;;;;4.00;2.25;;;24.40;92.70;;;;;;5070469;28;20114;-83
2023/06/26 09:39:52;;;;;;;2.88;2.00;;;24.50;92.20;;;;;;5070064;28;20094;-84
2023/06/26 09:42:19;;;;;;;3.75;2.05;;;24.30;91.60;;;;;;5052110;28;20052;-83
2023/06/26 09:44:46;;;;;;;1.80;1.70;;;24.20;91.50;;;;;;5064343;28;20090;-83
2023/06/26 09:47:12;;;;;;;4.10;1.80;;;24.10;91.00;;;;;;5066076;28;20070;-83
2023/06/26 09:49:42;;;;;;;4.20;1.80;;;24.10;90.40;;;;;;5067754;28;20504;-86
2023/06/26 09:52:08;;;;;;;2.35;1.77;;;23.90;91.10;;;;;;5066471;28;20042;-83
2023/06/26 09:54:35;;;;;;;2.75;1.83;;;24.30;91.40;;;;;;5070010;28;20605;-82
2023/06/26 09:57:12;;;;;;;4.65;1.67;;;24.40;90.80;;;;;;5068908;28;20044;-83
2023/06/26 09:59:39;;;;;;;2.95;1.75;;;24.50;87.10;;;;;;5069432;28;20049;-84
2023/06/26 10:02:05;;;;;;;2.42;1.70;;;24.00;88.00;;;;;;5068336;28;20071;-82
2023/06/26 10:04:31;;;;;;;3.63;1.85;;;24.30;87.50;;;;;;5067648;28;20107;-84
2023/06/26 10:06:58;;;;;;;5.43;1.90;;;24.40;86.20;;;;;;5069030;28;20040;-86
2023/06/26 10:09:24;;;;;;;6.18;1.80;;;24.10;85.40;;;;;;5069412;28;20052;-81
2023/06/26 10:11:57;;;;;;;2.22;1.90;;;24.20;85.50;;;;;;5067510;28;20055;-82
2023/06/26 10:14:26;;;;;;;2.03;1.83;;;24.00;84.40;;;;;;5047775;28;20055;-82
2023/06/26 10:16:52;;;;;;;3.33;2.00;;;24.30;84.80;;;;;;5068602;28;20048;-82
2023/06/26 10:19:24;;;;;;;2.53;1.90;;;24.50;83.80;;;;;;5084372;28;20048;-82
2023/06/26 10:21:52;;;;;;;3.97;1.90;;;24.30;83.40;;;;;;5067875;28;20055;-83
2023/06/26 10:24:19;;;;;;;4.20;2.03;;;24.00;82.60;;;;;;5069173;28;20080;-82
2023/06/26 10:26:46;;;;;;;4.97;1.60;;;23.90;81.20;;;;;;5066931;28;20045;-82
2023/06/26 10:29:15;;;;;;;2.28;1.75;;;24.10;80.70;;;;;;5067549;28;20077;-83
2023/06/26 10:31:45;;;;;;;4.30;1.60;;;24.30;78.80;;;;;;5048581;28;20056;-83
2023/06/26 10:34:12;;;;;;;2.78;1.90;;;24.00;78.10;;;;;;5054158;28;20087;-82
2023/06/26 10:36:38;;;;;;;5.10;1.70;;;24.30;78.90;;;;;;5050497;28;20040;-83
2023/06/26 10:39:05;;;;;;;4.57;1.90;;;23.90;79.60;;;;;;5067239;28;20048;-83
2023/06/26 10:41:42;;;;;;;2.78;1.67;;;23.70;80.50;;;;;;5058627;28;20041;-82
2023/06/26 10:44:10;;;;;;;3.33;2.10;;;23.50;81.10;;;;;;5051931;28;20492;-84
2023/06/26 10:46:56;;;;;;;3.08;1.77;;;23.60;81.90;;;;;;5068284;28;20044;-82
2023/06/26 10:49:29;;;;;;;3.30;1.95;;;23.90;82.40;;;;;;5066990;28;20067;-82
2023/06/26 10:51:57;;;;;;;4.05;2.00;;;24.10;82.20;;;;;;5067123;28;20052;-82
2023/06/26 10:54:29;;;;;;;3.60;1.90;;;24.40;82.40;;;;;;5067408;28;20101;-84
2023/06/26 10:56:58;;;;;;;2.97;1.50;;;24.30;81.70;;;;;;5067053;28;20045;-84
2023/06/26 10:59:29;;;;;;;2.83;2.00;;;23.90;80.50;;;;;;5065783;28;20679;-84
2023/06/26 11:02:02;;;;;;;2.20;1.60;;;24.10;78.70;;;;;;5048650;28;20087;-84
2023/06/26 11:04:37;;;;;;;2.15;1.60;;;24.30;78.70;;;;;;5048364;28;20507;-83
2023/06/26 11:07:23;;;;;;;3.97;1.98;;;24.60;78.00;;;;;;5061159;28;20041;-82
2023/06/26 11:10:07;;;;;;;5.47;1.58;;;24.70;76.20;;;;;;5066769;28;20041;-83
2023/06/26 11:12:44;;;;;;;2.17;1.30;;;24.30;74.80;;;;;;5066268;28;20048;-82
2023/06/26 11:15:14;;;;;;;4.03;1.33;;;24.20;75.20;;;;;;5067192;28;20090;-83
2023/06/26 11:17:41;;;;;;;4.07;1.70;;;23.90;75.50;;;;;;5065345;28;20463;-82
2023/06/26 11:20:15;;;;;;;2.47;1.70;;;23.90;76.10;;;;;;5066276;28;20090;-82
2023/06/26 11:22:42;;;;;;;3.67;1.45;;;23.70;75.90;;;;;;5065868;28;20032;-83
2023/06/26 11:25:09;;;;;;;4.00;1.67;;;23.70;75.50;;;;;;5066373;28;20040;-82
2023/06/26 11:27:38;;;;;;;3.13;1.55;;;23.80;75.10;;;;;;5067927;28;20048;-83
2023/06/26 11:30:05;;;;;;;2.95;1.60;;;23.90;74.90;;;;;;5067370;28;20045;-83
2023/06/26 11:32:32;;;;;;;4.55;1.98;;;24.00;74.80;;;;;;5072734;28;20045;-87
2023/06/26 11:34:58;;;;;;;7.78;1.90;;;24.20;74.50;;;;;;5077834;28;20421;-86
2023/06/26 11:37:24;;;;;;;3.53;1.80;;;24.40;74.80;;;;;;5079591;28;20047;-87
2023/06/26 11:39:51;;;;;;;5.80;1.83;;;24.40;73.70;;;;;;5079083;28;20048;-86
2023/06/26 11:42:17;;;;;;;5.43;1.92;;;24.50;73.90;;;;;;5071927;28;20124;-87
2023/06/26 11:44:43;;;;;;;3.85;1.80;;;24.50;74.30;;;;;;5072636;28;20186;-85
2023/06/26 11:47:21;;;;;;;3.35;1.67;;;24.50;74.20;;;;;;5072895;28;20033;-84
2023/06/26 11:49:48;;;;;;;5.70;1.60;;;24.70;74.00;;;;;;5052722;28;20056;-84
2023/06/26 11:52:15;;;;;;;3.60;1.67;;;24.90;74.40;;;;;;5054062;28;20049;-85
2023/06/26 11:54:42;;;;;;;3.35;1.65;;;24.50;72.90;;;;;;5054179;28;20507;-86
2023/06/26 11:57:08;;;;;;;5.20;1.70;;;24.50;72.70;;;;;;5074311;28;20040;-87
2023/06/26 11:59:41;;;;;;;3.33;1.42;;;24.40;72.80;;;;;;5074473;28;20045;-85
2023/06/26 12:02:12;;;;;;;2.58;1.30;;;24.70;74.10;;;;;;5076007;28;20048;-85
2023/06/26 12:04:42;;;;;;;3.30;1.10;;;24.80;70.20;;;;;;5077613;28;20098;-86
2023/06/26 12:07:09;;;;;;;1.80;1.25;;;24.80;69.60;;;;;;5070683;28;20097;-86
2023/06/26 12:09:43;;;;;;;5.72;1.40;;;24.80;69.10;;;;;;5053250;28;20087;-85
2023/06/26 12:12:10;;;;;;;5.82;1.25;;;24.90;69.20;;;;;;5071984;28;20659;-85
2023/06/26 12:14:37;;;;;;;2.45;1.00;;;24.70;70.30;;;;;;5051586;28;20465;-84
2023/06/26 12:17:10;;;;;;;5.50;1.60;;;24.80;70.20;;;;;;5068422;28;20040;-86
2023/06/26 12:19:49;;;;;;;8.55;1.83;;;24.70;70.10;;;;;;5069362;28;20416;-86
2023/06/26 12:22:15;;;;;;;2.78;1.20;;;24.50;70.50;;;;;;5073990;28;20131;-86
2023/06/26 12:24:42;;;;;;;3.90;1.38;;;24.30;71.80;;;;;;5055114;28;20048;-85
2023/06/26 12:27:15;;;;;;;5.18;1.40;;;24.10;72.90;;;;;;5052551;28;20511;-85
2023/06/26 12:29:53;;;;;;;6.05;1.25;;;23.80;73.50;;;;;;5069425;28;20040;-86
2023/06/26 12:32:19;;;;;;;3.90;1.20;;;23.90;73.10;;;;;;5072986;28;20131;-84
2023/06/26 12:34:53;;;;;;;4.20;1.45;;;23.70;73.70;;;;;;5074365;28;20051;-85
2023/06/26 12:37:18;;;;;;;4.53;1.60;;;23.80;74.10;;;;;;5072720;28;20040;-84
2023/06/26 12:39:48;;;;;;;3.50;1.23;;;24.00;74.50;;;;;;5070688;28;20120;-84
2023/06/26 12:42:15;;;;;;;5.40;1.40;;;23.80;73.50;;;;;;5057694;28;20124;-86